sensor_id;sensor_type;location;lat;lon;timestamp;pressure;altitude;pressure_sealevel;temperature;humidity
21129;BME280;10722;51.910;8.352;2023-02-12T00:02:41;102982.38;;;7.23;100.00
21129;BME280;10722;51.910;8.352;2023-02-12T00:05:27;102975.75;;;7.13;100.00
21129;BME280;10722;51.910;8.352;2023-02-12T00:08:12;102978.94;;;7.23;100.00
21129;BME280;10722;51.910;8.352;2023-02-12T00:10:58;102973.84;;;7.11;100.00
21129;BME280;10722;51.910;8.352;2023-02-12T00:13:43;102981.25;;;7.06;100.00
21129;BME280;10722;51.910;8.352;2023-02-12T00:16:31;102981.69;;;7.12;100.00
21129;BME280;10722;51.910;8.352;2023-02-12T00:19:16;102980.47;;;7.07;100.00
21129;BME280;10722;51.910;8.352;2023-02-12T00:22:02;102978.41;;;7.15;100.00
21129;BME280;10722;51.910;8.352;2023-02-12T00:24:47;102976.75;;;7.15;100.00
21129;BME280;10722;51.910;8.352;2023-02-12T00:27:33;102973.91;;;7.24;100.00
21129;BME280;10722;51.910;8.352;2023-02-12T00:30:19;102976.47;;;7.24;100.00
21129;BME280;10722;51.910;8.352;2023-02-12T00:33:04;102979.13;;;7.26;100.00
21129;BME280;10722;51.910;8.352;2023-02-12T00:35:56;102984.75;;;7.20;100.00
21129;BME280;10722;51.910;8.352;2023-02-12T00:38:41;102984.28;;;7.26;100.00
21129;BME280;10722;51.910;8.352;2023-02-12T00:41:27;102987.03;;;7.15;100.00
21129;BME280;10722;51.910;8.352;2023-02-12T00:44:13;102987.97;;;7.29;100.00
21129;BME280;10722;51.910;8.352;2023-02-12T00:46:58;102986.38;;;7.18;100.00
21129;BME280;10722;51.910;8.352;2023-02-12T00:49:43;102982.38;;;7.10;100.00
21129;BME280;10722;51.910;8.352;2023-02-12T00:52:28;102992.41;;;7.18;100.00
21129;BME280;10722;51.910;8.352;2023-02-12T00:55:14;102981.09;;;7.16;100.00
21129;BME280;10722;51.910;8.352;2023-02-12T00:57:59;102986.03;;;7.13;100.00
21129;BME280;10722;51.910;8.352;2023-02-12T01:00:45;102983.94;;;7.08;100.00
21129;BME280;10722;51.910;8.352;2023-02-12T01:03:30;102977.44;;;7.13;100.00
21129;BME280;10722;51.910;8.352;2023-02-12T01:06:16;102982.19;;;7.20;100.00
21129;BME280;10722;51.910;8.352;2023-02-12T01:09:01;102990.72;;;7.19;100.00
21129;BME280;10722;51.910;8.352;2023-02-12T01:11:46;102983.06;;;7.07;100.00
21129;BME280;10722;51.910;8.352;2023-02-12T01:14:32;102992.00;;;7.12;100.00
21129;BME280;10722;51.910;8.352;2023-02-12T01:17:17;102985.84;;;7.10;100.00
21129;BME280;10722;51.910;8.352;2023-02-12T01:20:04;102980.97;;;7.02;100.00
21129;BME280;10722;51.910;8.352;2023-02-12T01:22:50;102986.78;;;6.99;100.00
21129;BME280;10722;51.910;8.352;2023-02-12T01:25:37;102985.56;;;6.94;100.00
21129;BME280;10722;51.910;8.352;2023-02-12T01:28:22;102987.72;;;6.88;100.00
21129;BME280;10722;51.910;8.352;2023-02-12T01:31:10;102997.03;;;6.86;100.00
21129;BME280;10722;51.910;8.352;2023-02-12T01:33:58;103003.47;;;6.92;100.00
21129;BME280;10722;51.910;8.352;2023-02-12T01:36:43;102999.03;;;6.90;100.00
21129;BME280;10722;51.910;8.352;2023-02-12T01:39:29;103001.81;;;6.93;100.00
21129;BME280;10722;51.910;8.352;2023-02-12T01:42:15;103006.31;;;6.84;100.00
21129;BME280;10722;51.910;8.352;2023-02-12T01:47:59;103005.75;;;6.88;100.00
21129;BME280;10722;51.910;8.352;2023-02-12T01:50:45;103006.31;;;6.84;100.00
21129;BME280;10722;51.910;8.352;2023-02-12T01:53:34;103006.84;;;6.91;100.00
21129;BME280;10722;51.910;8.352;2023-02-12T01:56:22;103007.72;;;6.92;100.00
21129;BME280;10722;51.910;8.352;2023-02-12T01:59:08;103004.53;;;7.08;100.00
21129;BME280;10722;51.910;8.352;2023-02-12T02:01:56;103005.84;;;6.89;100.00
21129;BME280;10722;51.910;8.352;2023-02-12T02:04:45;102999.03;;;6.90;100.00
21129;BME280;10722;51.910;8.352;2023-02-12T02:07:32;103009.22;;;6.88;100.00
21129;BME280;10722;51.910;8.352;2023-02-12T02:10:17;103007.09;;;6.83;100.00
21129;BME280;10722;51.910;8.352;2023-02-12T02:13:03;102998.59;;;6.84;100.00
21129;BME280;10722;51.910;8.352;2023-02-12T02:15:50;103001.59;;;6.90;100.00
21129;BME280;10722;51.910;8.352;2023-02-12T02:21:29;102994.09;;;6.93;100.00
21129;BME280;10722;51.910;8.352;2023-02-12T02:24:39;102992.50;;;6.95;100.00
21129;BME280;10722;51.910;8.352;2023-02-12T02:27:37;102992.28;;;6.92;100.00
21129;BME280;10722;51.910;8.352;2023-02-12T02:30:35;102994.09;;;6.93;100.00
21129;BME280;10722;51.910;8.352;2023-02-12T02:33:48;102993.63;;;6.99;100.00
21129;BME280;10722;51.910;8.352;2023-02-12T02:39:53;102990.44;;;7.03;100.00
21129;BME280;10722;51.910;8.352;2023-02-12T02:42:43;102982.56;;;7.13;100.00
21129;BME280;10722;51.910;8.352;2023-02-12T02:45:48;102975.59;;;6.99;100.00
21129;BME280;10722;51.910;8.352;2023-02-12T02:48:48;102986.78;;;6.99;100.00
21129;BME280;10722;51.910;8.352;2023-02-12T02:51:47;102984.69;;;6.93;100.00
21129;BME280;10722;51.910;8.352;2023-02-12T02:54:39;102983.16;;;6.84;100.00
21129;BME280;10722;51.910;8.352;2023-02-12T02:57:46;102975.59;;;6.73;100.00
21129;BME280;10722;51.910;8.352;2023-02-12T03:04:16;102991.44;;;6.55;100.00
21129;BME280;10722;51.910;8.352;2023-02-12T03:07:10;102982.28;;;6.46;100.00
21129;BME280;10722;51.910;8.352;2023-02-12T03:10:01;102992.47;;;6.45;100.00
21129;BME280;10722;51.910;8.352;2023-02-12T03:15:46;102988.91;;;6.43;100.00
21129;BME280;10722;51.910;8.352;2023-02-12T03:18:49;102988.09;;;6.44;100.00
21129;BME280;10722;51.910;8.352;2023-02-12T03:21:48;102989.66;;;6.42;100.00
21129;BME280;10722;51.910;8.352;2023-02-12T03:24:42;102994.28;;;6.34;100.00
21129;BME280;10722;51.910;8.352;2023-02-12T03:27:31;102989.22;;;6.36;100.00
21129;BME280;10722;51.910;8.352;2023-02-12T03:30:17;102991.94;;;6.37;100.00
21129;BME280;10722;51.910;8.352;2023-02-12T03:33:09;102996.06;;;6.35;100.00
21129;BME280;10722;51.910;8.352;2023-02-12T03:36:03;102984.50;;;6.42;100.00
21129;BME280;10722;51.910;8.352;2023-02-12T03:38:52;102987.09;;;6.42;100.00
21129;BME280;10722;51.910;8.352;2023-02-12T03:41:48;102988.31;;;6.47;100.00
21129;BME280;10722;51.910;8.352;2023-02-12T03:47:47;102988.81;;;6.66;100.00
21129;BME280;10722;51.910;8.352;2023-02-12T03:50:39;102985.56;;;6.69;100.00
21129;BME280;10722;51.910;8.352;2023-02-12T03:53:29;102992.84;;;6.63;100.00
21129;BME280;10722;51.910;8.352;2023-02-12T03:56:19;102992.31;;;6.55;100.00
21129;BME280;10722;51.910;8.352;2023-02-12T03:59:07;102995.25;;;6.48;100.00
21129;BME280;10722;51.910;8.352;2023-02-12T04:01:53;103009.69;;;6.46;100.00
21129;BME280;10722;51.910;8.352;2023-02-12T04:04:40;103003.88;;;6.48;100.00
21129;BME280;10722;51.910;8.352;2023-02-12T04:07:25;103004.41;;;6.44;100.00
21129;BME280;10722;51.910;8.352;2023-02-12T04:10:11;103006.34;;;6.35;100.00
21129;BME280;10722;51.910;8.352;2023-02-12T04:13:53;103015.94;;;6.38;100.00
21129;BME280;10722;51.910;8.352;2023-02-12T04:16:44;103019.88;;;6.33;100.00
21129;BME280;10722;51.910;8.352;2023-02-12T04:32:14;103031.97;;;6.34;100.00
21129;BME280;10722;51.910;8.352;2023-02-12T04:38:02;103042.56;;;6.26;100.00
21129;BME280;10722;51.910;8.352;2023-02-12T04:40:51;103046.03;;;6.27;100.00
21129;BME280;10722;51.910;8.352;2023-02-12T04:43:37;103050.41;;;6.28;100.00
21129;BME280;10722;51.910;8.352;2023-02-12T04:46:22;103055.88;;;6.33;100.00
21129;BME280;10722;51.910;8.352;2023-02-12T04:49:12;103059.78;;;6.27;100.00
21129;BME280;10722;51.910;8.352;2023-02-12T04:51:58;103053.75;;;6.27;100.00
21129;BME280;10722;51.910;8.352;2023-02-12T04:54:43;103059.00;;;6.28;100.00
21129;BME280;10722;51.910;8.352;2023-02-12T04:57:29;103058.78;;;6.37;100.00
21129;BME280;10722;51.910;8.352;2023-02-12T05:00:14;103058.41;;;6.44;100.00
21129;BME280;10722;51.910;8.352;2023-02-12T05:03:00;103062.91;;;6.35;100.00
21129;BME280;10722;51.910;8.352;2023-02-12T05:05:46;103061.09;;;6.46;100.00
21129;BME280;10722;51.910;8.352;2023-02-12T05:08:31;103053.72;;;6.39;100.00
21129;BME280;10722;51.910;8.352;2023-02-12T05:11:16;103058.44;;;6.33;100.00
21129;BME280;10722;51.910;8.352;2023-02-12T05:14:01;103058.22;;;6.29;100.00
21129;BME280;10722;51.910;8.352;2023-02-12T05:16:47;103059.09;;;6.30;100.00
21129;BME280;10722;51.910;8.352;2023-02-12T05:19:32;103058.13;;;6.28;100.00
21129;BME280;10722;51.910;8.352;2023-02-12T05:22:18;103060.13;;;6.32;100.00
21129;BME280;10722;51.910;8.352;2023-02-12T05:25:03;103059.78;;;6.39;100.00
21129;BME280;10722;51.910;8.352;2023-02-12T05:27:49;103061.78;;;6.32;100.00
21129;BME280;10722;51.910;8.352;2023-02-12T05:30:34;103060.56;;;6.26;100.00
21129;BME280;10722;51.910;8.352;2023-02-12T05:33:20;103056.97;;;6.24;100.00
21129;BME280;10722;51.910;8.352;2023-02-12T05:36:08;103061.16;;;6.22;100.00
21129;BME280;10722;51.910;8.352;2023-02-12T05:38:57;103060.34;;;6.23;100.00
21129;BME280;10722;51.910;8.352;2023-02-12T05:41:42;103061.91;;;6.21;100.00
21129;BME280;10722;51.910;8.352;2023-02-12T05:44:28;103061.16;;;6.22;100.00
21129;BME280;10722;51.910;8.352;2023-02-12T05:47:13;103062.78;;;6.22;100.00
21129;BME280;10722;51.910;8.352;2023-02-12T05:49:58;103060.00;;;6.19;100.00
21129;BME280;10722;51.910;8.352;2023-02-12T05:52:43;103066.28;;;6.22;100.00
21129;BME280;10722;51.910;8.352;2023-02-12T05:55:28;103058.09;;;6.16;100.00
21129;BME280;10722;51.910;8.352;2023-02-12T05:58:16;103063.91;;;6.14;100.00
21129;BME280;10722;51.910;8.352;2023-02-12T06:01:02;103065.72;;;6.15;100.00
21129;BME280;10722;51.910;8.352;2023-02-12T06:03:48;103057.13;;;6.14;100.00
21129;BME280;10722;51.910;8.352;2023-02-12T06:06:33;103075.44;;;6.07;100.00
21129;BME280;10722;51.910;8.352;2023-02-12T06:09:19;103066.94;;;6.08;100.00
21129;BME280;10722;51.910;8.352;2023-02-12T06:12:04;103065.16;;;6.07;100.00
21129;BME280;10722;51.910;8.352;2023-02-12T06:14:49;103074.97;;;6.24;100.00
21129;BME280;10722;51.910;8.352;2023-02-12T06:17:35;103072.31;;;6.23;100.00
21129;BME280;10722;51.910;8.352;2023-02-12T06:20:20;103070.41;;;6.09;100.00
21129;BME280;10722;51.910;8.352;2023-02-12T06:23:06;103078.13;;;6.09;100.00
21129;BME280;10722;51.910;8.352;2023-02-12T06:25:56;103069.97;;;6.14;100.00
21129;BME280;10722;51.910;8.352;2023-02-12T06:28:42;103070.19;;;6.17;100.00
21129;BME280;10722;51.910;8.352;2023-02-12T06:31:33;103071.97;;;6.18;100.00
21129;BME280;10722;51.910;8.352;2023-02-12T06:34:19;103077.75;;;6.27;100.00
21129;BME280;10722;51.910;8.352;2023-02-12T06:37:04;103079.44;;;6.27;100.00
21129;BME280;10722;51.910;8.352;2023-02-12T06:39:50;103088.41;;;6.32;100.00
21129;BME280;10722;51.910;8.352;2023-02-12T06:42:35;103074.53;;;6.18;100.00
21129;BME280;10722;51.910;8.352;2023-02-12T06:45:21;103079.47;;;6.03;100.00
21129;BME280;10722;51.910;8.352;2023-02-12T06:48:06;103088.50;;;5.98;100.00
21129;BME280;10722;51.910;8.352;2023-02-12T06:50:51;103089.06;;;5.94;100.00
21129;BME280;10722;51.910;8.352;2023-02-12T06:53:36;103097.53;;;5.93;100.00
21129;BME280;10722;51.910;8.352;2023-02-12T06:56:22;103102.53;;;5.92;100.00
21129;BME280;10722;51.910;8.352;2023-02-12T06:59:12;103105.13;;;5.92;100.00
21129;BME280;10722;51.910;8.352;2023-02-12T07:01:58;103103.25;;;6.01;100.00
21129;BME280;10722;51.910;8.352;2023-02-12T07:04:43;103100.13;;;6.05;100.00
21129;BME280;10722;51.910;8.352;2023-02-12T07:07:28;103108.53;;;6.14;100.00
21129;BME280;10722;51.910;8.352;2023-02-12T07:10:14;103107.50;;;6.12;100.00
21129;BME280;10722;51.910;8.352;2023-02-12T07:12:59;103107.16;;;6.07;100.00
21129;BME280;10722;51.910;8.352;2023-02-12T07:15:45;103119.25;;;6.09;100.00
21129;BME280;10722;51.910;8.352;2023-02-12T07:18:30;103123.16;;;6.15;100.00
21129;BME280;10722;51.910;8.352;2023-02-12T07:21:16;103120.13;;;6.09;100.00
21129;BME280;10722;51.910;8.352;2023-02-12T07:24:02;103128.38;;;6.05;100.00
21129;BME280;10722;51.910;8.352;2023-02-12T07:26:47;103131.75;;;6.04;100.00
21129;BME280;10722;51.910;8.352;2023-02-12T07:29:33;103133.66;;;6.06;100.00
21129;BME280;10722;51.910;8.352;2023-02-12T07:32:18;103131.88;;;6.05;100.00
21129;BME280;10722;51.910;8.352;2023-02-12T07:35:04;103144.03;;;6.08;100.00
21129;BME280;10722;51.910;8.352;2023-02-12T07:37:49;103140.34;;;6.16;100.00
21129;BME280;10722;51.910;8.352;2023-02-12T07:40:34;103147.06;;;6.14;100.00
21129;BME280;10722;51.910;8.352;2023-02-12T07:43:20;103149.97;;;6.19;100.00
21129;BME280;10722;51.910;8.352;2023-02-12T07:46:09;103150.09;;;6.20;100.00
21129;BME280;10722;51.910;8.352;2023-02-12T07:48:57;103155.09;;;6.19;100.00
21129;BME280;10722;51.910;8.352;2023-02-12T07:51:42;103159.72;;;6.23;100.00
21129;BME280;10722;51.910;8.352;2023-02-12T07:54:28;103160.03;;;6.27;100.00
21129;BME280;10722;51.910;8.352;2023-02-12T07:57:13;103162.38;;;6.24;100.00
21129;BME280;10722;51.910;8.352;2023-02-12T07:59:58;103153.91;;;6.25;100.00
21129;BME280;10722;51.910;8.352;2023-02-12T08:02:52;103160.03;;;6.27;100.00
21129;BME280;10722;51.910;8.352;2023-02-12T08:05:38;103155.69;;;6.26;100.00
21129;BME280;10722;51.910;8.352;2023-02-12T08:08:23;103157.38;;;6.26;100.00
21129;BME280;10722;51.910;8.352;2023-02-12T08:11:11;103161.06;;;6.29;100.00
21129;BME280;10722;51.910;8.352;2023-02-12T08:13:57;103160.72;;;6.37;100.00
21129;BME280;10722;51.910;8.352;2023-02-12T08:16:44;103160.72;;;6.37;100.00
21129;BME280;10722;51.910;8.352;2023-02-12T08:19:30;103171.47;;;6.43;100.00
21129;BME280;10722;51.910;8.352;2023-02-12T08:22:15;103167.09;;;6.42;100.00
21129;BME280;10722;51.910;8.352;2023-02-12T08:25:00;103168.97;;;6.44;100.00
21129;BME280;10722;51.910;8.352;2023-02-12T08:27:46;103172.69;;;6.48;100.00
21129;BME280;10722;51.910;8.352;2023-02-12T08:30:31;103168.66;;;6.51;100.00
21129;BME280;10722;51.910;8.352;2023-02-12T08:33:17;103172.25;;;6.54;100.00
21129;BME280;10722;51.910;8.352;2023-02-12T08:36:10;103171.69;;;6.58;100.00
21129;BME280;10722;51.910;8.352;2023-02-12T08:38:57;103175.84;;;6.67;100.00
21129;BME280;10722;51.910;8.352;2023-02-12T08:41:42;103166.97;;;6.76;100.00
21129;BME280;10722;51.910;8.352;2023-02-12T08:44:28;103182.41;;;6.87;100.00
21129;BME280;10722;51.910;8.352;2023-02-12T08:47:13;103173.91;;;6.88;100.00
21129;BME280;10722;51.910;8.352;2023-02-12T08:49:59;103171.78;;;6.83;100.00
21129;BME280;10722;51.910;8.352;2023-02-12T08:52:44;103167.88;;;6.88;100.00
21129;BME280;10722;51.910;8.352;2023-02-12T08:55:29;103177.72;;;6.82;100.00
21129;BME280;10722;51.910;8.352;2023-02-12T08:58:15;103178.94;;;6.99;100.00
21129;BME280;10722;51.910;8.352;2023-02-12T09:01:02;103178.56;;;7.06;100.00
21129;BME280;10722;51.910;8.352;2023-02-12T09:03:49;103171.06;;;7.09;100.00
21129;BME280;10722;51.910;8.352;2023-02-12T09:06:35;103172.63;;;7.18;100.00
21129;BME280;10722;51.910;8.352;2023-02-12T09:09:21;103172.53;;;7.42;100.00
21129;BME280;10722;51.910;8.352;2023-02-12T09:12:06;103169.41;;;7.34;100.00
21129;BME280;10722;51.910;8.352;2023-02-12T09:14:52;103163.53;;;7.49;100.00
21129;BME280;10722;51.910;8.352;2023-02-12T09:17:37;103166.22;;;7.50;100.00
21129;BME280;10722;51.910;8.352;2023-02-12T09:20:23;103166.97;;;7.61;100.00
21129;BME280;10722;51.910;8.352;2023-02-12T09:23:10;103167.84;;;7.86;100.00
21129;BME280;10722;51.910;8.352;2023-02-12T09:25:55;103159.72;;;7.94;100.00
21129;BME280;10722;51.910;8.352;2023-02-12T09:28:41;103164.91;;;8.07;100.00
21129;BME280;10722;51.910;8.352;2023-02-12T09:31:28;103157.09;;;8.19;100.00
21129;BME280;10722;51.910;8.352;2023-02-12T09:34:14;103157.44;;;8.37;100.00
21129;BME280;10722;51.910;8.352;2023-02-12T09:36:59;103152.69;;;8.43;100.00
21129;BME280;10722;51.910;8.352;2023-02-12T09:39:45;103149.63;;;8.48;100.00
21129;BME280;10722;51.910;8.352;2023-02-12T09:45:38;103135.63;;;8.45;100.00
21129;BME280;10722;51.910;8.352;2023-02-12T09:48:40;103132.56;;;8.50;100.00
21129;BME280;10722;51.910;8.352;2023-02-12T09:51:30;103132.53;;;8.37;100.00
21129;BME280;10722;51.910;8.352;2023-02-12T09:54:19;103137.13;;;8.55;100.00
21129;BME280;10722;51.910;8.352;2023-02-12T09:57:14;103127.47;;;8.52;100.00
21129;BME280;10722;51.910;8.352;2023-02-12T10:00:07;103124.38;;;8.31;100.00
21129;BME280;10722;51.910;8.352;2023-02-12T10:02:53;103124.78;;;8.37;100.00
21129;BME280;10722;51.910;8.352;2023-02-12T10:05:52;103133.25;;;8.48;100.00
21129;BME280;10722;51.910;8.352;2023-02-12T10:09:02;103132.16;;;8.58;100.00
21129;BME280;10722;51.910;8.352;2023-02-12T10:27:35;103105.72;;;9.16;100.00
21129;BME280;10722;51.910;8.352;2023-02-12T10:30:57;103098.63;;;9.27;100.00
21129;BME280;10722;51.910;8.352;2023-02-12T10:33:43;103087.66;;;9.31;100.00
21129;BME280;10722;51.910;8.352;2023-02-12T10:36:44;103084.28;;;9.32;100.00
21129;BME280;10722;51.910;8.352;2023-02-12T10:39:40;103078.03;;;9.01;100.00
21129;BME280;10722;51.910;8.352;2023-02-12T10:42:42;103080.38;;;8.96;100.00
21129;BME280;10722;51.910;8.352;2023-02-12T10:45:37;103084.47;;;8.79;100.00
21129;BME280;10722;51.910;8.352;2023-02-12T10:48:44;103083.38;;;8.75;100.00
21129;BME280;10722;51.910;8.352;2023-02-12T10:54:47;103109.66;;;8.83;100.00
21129;BME280;10722;51.910;8.352;2023-02-12T10:57:37;103106.16;;;8.68;100.00
21129;BME280;10722;51.910;8.352;2023-02-12T11:00:34;103098.84;;;8.75;100.00
21129;BME280;10722;51.910;8.352;2023-02-12T11:03:26;103111.22;;;9.08;100.00
21129;BME280;10722;51.910;8.352;2023-02-12T11:06:16;103101.94;;;9.11;100.00
21129;BME280;10722;51.910;8.352;2023-02-12T11:09:01;103096.88;;;9.13;100.00
21129;BME280;10722;51.910;8.352;2023-02-12T11:11:46;103106.78;;;9.20;100.00
21129;BME280;10722;51.910;8.352;2023-02-12T11:14:33;103101.22;;;8.99;100.00
21129;BME280;10722;51.910;8.352;2023-02-12T11:17:27;103096.50;;;8.79;100.00
21129;BME280;10722;51.910;8.352;2023-02-12T11:23:03;103108.09;;;9.13;100.00
21129;BME280;10722;51.910;8.352;2023-02-12T11:29:18;103100.41;;;9.28;100.00
21129;BME280;10722;51.910;8.352;2023-02-12T11:32:06;103089.81;;;9.24;100.00
21129;BME280;10722;51.910;8.352;2023-02-12T11:35:09;103088.84;;;9.08;100.00
21129;BME280;10722;51.910;8.352;2023-02-12T11:37:57;103096.28;;;9.32;100.00
21129;BME280;10722;51.910;8.352;2023-02-12T11:40:45;103088.75;;;9.35;100.00
21129;BME280;10722;51.910;8.352;2023-02-12T11:43:33;103080.22;;;9.08;100.00
21129;BME280;10722;51.910;8.352;2023-02-12T11:46:21;103082.88;;;9.09;100.00
21129;BME280;10722;51.910;8.352;2023-02-12T11:49:19;103093.81;;;8.77;100.00
21129;BME280;10722;51.910;8.352;2023-02-12T11:52:06;103106.56;;;9.02;100.00
21129;BME280;10722;51.910;8.352;2023-02-12T11:55:05;103117.56;;;9.13;100.00
21129;BME280;10722;51.910;8.352;2023-02-12T11:57:54;103117.31;;;9.23;100.00
21129;BME280;10722;51.910;8.352;2023-02-12T12:03:58;103097.13;;;9.46;100.00
21129;BME280;10722;51.910;8.352;2023-02-12T12:06:54;103098.66;;;9.57;100.00
21129;BME280;10722;51.910;8.352;2023-02-12T12:09:46;103075.59;;;9.60;100.00
21129;BME280;10722;51.910;8.352;2023-02-12T12:12:57;103074.00;;;9.62;100.00
21129;BME280;10722;51.910;8.352;2023-02-12T12:15:48;103064.28;;;9.73;100.00
21129;BME280;10722;51.910;8.352;2023-02-12T12:18:49;103063.94;;;9.67;100.00
21129;BME280;10722;51.910;8.352;2023-02-12T12:21:38;103051.72;;;9.64;100.00
21129;BME280;10722;51.910;8.352;2023-02-12T12:28:04;103047.50;;;9.96;100.00
21129;BME280;10722;51.910;8.352;2023-02-12T12:46:09;102992.13;;;10.38;99.19
21129;BME280;10722;51.910;8.352;2023-02-12T13:13:56;102884.34;;;10.89;91.45
21129;BME280;10722;51.910;8.352;2023-02-12T13:17:43;102889.59;;;11.07;91.13
21129;BME280;10722;51.910;8.352;2023-02-12T13:24:02;102870.47;;;11.05;89.55
21129;BME280;10722;51.910;8.352;2023-02-12T13:26:58;102867.56;;;11.15;89.56
21129;BME280;10722;51.910;8.352;2023-02-12T13:29:50;102850.00;;;11.28;88.45
21129;BME280;10722;51.910;8.352;2023-02-12T13:32:40;102858.66;;;11.10;88.66
21129;BME280;10722;51.910;8.352;2023-02-12T13:35:28;102857.09;;;11.32;88.06
21129;BME280;10722;51.910;8.352;2023-02-12T13:38:21;102845.84;;;11.13;87.48
21129;BME280;10722;51.910;8.352;2023-02-12T13:41:10;102852.22;;;11.02;87.68
21129;BME280;10722;51.910;8.352;2023-02-12T13:50:19;102884.34;;;10.55;88.63
21129;BME280;10722;51.910;8.352;2023-02-12T13:56:40;102923.88;;;10.69;89.94
21129;BME280;10722;51.910;8.352;2023-02-12T14:05:24;102932.78;;;10.58;90.68
21129;BME280;10722;51.910;8.352;2023-02-12T14:08:32;102910.59;;;10.30;89.87
21129;BME280;10722;51.910;8.352;2023-02-12T14:11:23;102911.59;;;10.01;90.22
21129;BME280;10722;51.910;8.352;2023-02-12T14:14:09;102933.38;;;9.90;90.64
21129;BME280;10722;51.910;8.352;2023-02-12T14:16:54;102940.34;;;9.91;91.46
21129;BME280;10722;51.910;8.352;2023-02-12T14:25:38;102972.69;;;9.99;92.93
21129;BME280;10722;51.910;8.352;2023-02-12T14:31:37;102969.53;;;10.04;92.90
21129;BME280;10722;51.910;8.352;2023-02-12T14:37:16;102933.59;;;10.09;91.38
21129;BME280;10722;51.910;8.352;2023-02-12T14:43:35;102943.78;;;10.06;91.60
21129;BME280;10722;51.910;8.352;2023-02-12T14:55:03;102945.38;;;10.04;91.95
21129;BME280;10722;51.910;8.352;2023-02-12T14:57:50;102941.66;;;9.99;91.85
21129;BME280;10722;51.910;8.352;2023-02-12T15:00:40;102938.00;;;9.95;91.11
21129;BME280;10722;51.910;8.352;2023-02-12T15:03:44;102928.38;;;9.93;90.67
21129;BME280;10722;51.910;8.352;2023-02-12T15:06:38;102921.78;;;9.98;90.49
21129;BME280;10722;51.910;8.352;2023-02-12T15:09:35;102917.06;;;9.91;90.29
21129;BME280;10722;51.910;8.352;2023-02-12T15:12:34;102925.34;;;10.00;90.31
21129;BME280;10722;51.910;8.352;2023-02-12T15:15:27;102924.75;;;9.89;90.12
21129;BME280;10722;51.910;8.352;2023-02-12T15:18:41;102942.56;;;9.84;90.81
21129;BME280;10722;51.910;8.352;2023-02-12T15:21:30;102947.69;;;9.83;91.60
21129;BME280;10722;51.910;8.352;2023-02-12T15:24:21;102948.22;;;9.77;90.93
21129;BME280;10722;51.910;8.352;2023-02-12T15:27:10;102927.56;;;9.62;90.52
21129;BME280;10722;51.910;8.352;2023-02-12T15:29:56;102931.25;;;9.36;90.33
21129;BME280;10722;51.910;8.352;2023-02-12T15:32:43;102925.34;;;9.09;91.01
21129;BME280;10722;51.910;8.352;2023-02-12T15:35:31;102938.53;;;9.29;91.58
21129;BME280;10722;51.910;8.352;2023-02-12T15:38:21;102947.81;;;9.25;91.65
21129;BME280;10722;51.910;8.352;2023-02-12T15:41:07;102961.97;;;9.32;92.23
21129;BME280;10722;51.910;8.352;2023-02-12T15:43:53;102961.00;;;9.45;92.27
21129;BME280;10722;51.910;8.352;2023-02-12T15:46:38;102939.00;;;9.36;91.83
21129;BME280;10722;51.910;8.352;2023-02-12T15:49:34;102952.97;;;9.40;91.58
21129;BME280;10722;51.910;8.352;2023-02-12T15:52:22;102948.63;;;9.39;91.85
21129;BME280;10722;51.910;8.352;2023-02-12T15:55:16;102953.50;;;9.34;91.74
21129;BME280;10722;51.910;8.352;2023-02-12T15:58:03;102940.88;;;9.24;91.77
21129;BME280;10722;51.910;8.352;2023-02-12T16:00:48;102954.09;;;9.01;92.27
21129;BME280;10722;51.910;8.352;2023-02-12T16:03:36;102967.81;;;8.85;93.32
21129;BME280;10722;51.910;8.352;2023-02-12T16:06:24;102985.63;;;8.95;94.48
21129;BME280;10722;51.910;8.352;2023-02-12T16:12:01;102989.13;;;8.95;94.72
21129;BME280;10722;51.910;8.352;2023-02-12T16:14:50;102994.81;;;9.05;94.96
21129;BME280;10722;51.910;8.352;2023-02-12T16:17:45;102985.09;;;9.01;95.09
21129;BME280;10722;51.910;8.352;2023-02-12T16:20:31;102990.44;;;9.04;95.01
21129;BME280;10722;51.910;8.352;2023-02-12T16:23:34;102993.81;;;9.03;95.06
21129;BME280;10722;51.910;8.352;2023-02-12T16:26:22;103007.09;;;9.09;96.33
21129;BME280;10722;51.910;8.352;2023-02-12T16:29:15;103011.56;;;9.11;96.93
21129;BME280;10722;51.910;8.352;2023-02-12T16:32:01;103016.03;;;9.14;97.15
21129;BME280;10722;51.910;8.352;2023-02-12T16:35:21;103019.50;;;9.14;97.31
21129;BME280;10722;51.910;8.352;2023-02-12T16:47:00;102990.31;;;9.15;96.28
21129;BME280;10722;51.910;8.352;2023-02-12T16:50:17;102975.41;;;9.11;95.41
21129;BME280;10722;51.910;8.352;2023-02-12T16:53:26;102974.75;;;9.01;94.66
21129;BME280;10722;51.910;8.352;2023-02-12T16:56:19;102981.22;;;9.07;94.79
21129;BME280;10722;51.910;8.352;2023-02-12T16:59:14;102977.09;;;9.11;94.91
21129;BME280;10722;51.910;8.352;2023-02-12T17:02:14;102983.78;;;9.07;94.98
21129;BME280;10722;51.910;8.352;2023-02-12T17:04:59;103006.03;;;9.05;96.08
21129;BME280;10722;51.910;8.352;2023-02-12T17:07:45;103011.44;;;8.95;96.77
21129;BME280;10722;51.910;8.352;2023-02-12T17:10:30;103024.63;;;9.00;97.17
21129;BME280;10722;51.910;8.352;2023-02-12T17:13:16;103026.50;;;9.02;97.63
21129;BME280;10722;51.910;8.352;2023-02-12T17:16:02;103023.41;;;9.08;97.46
21129;BME280;10722;51.910;8.352;2023-02-12T17:18:48;103025.94;;;9.21;96.67
21129;BME280;10722;51.910;8.352;2023-02-12T17:21:36;103023.16;;;9.18;96.74
21129;BME280;10722;51.910;8.352;2023-02-12T17:24:24;103013.44;;;9.29;95.81
21129;BME280;10722;51.910;8.352;2023-02-12T17:27:12;103008.50;;;9.04;95.44
21129;BME280;10722;51.910;8.352;2023-02-12T17:29:58;103001.50;;;8.73;95.68
21129;BME280;10722;51.910;8.352;2023-02-12T17:32:43;103026.47;;;8.59;96.50
21129;BME280;10722;51.910;8.352;2023-02-12T17:35:28;103032.50;;;8.60;97.08